Aviation Digital Data Service (ADDS)

Output produced by METARs form (1711 UTC 01 October 2016)
found at http://aviationweather.gov/adds/metars/
 
KIAG 011501Z 0115/0212 09008KT P6SM OVC030 
     FM011600 09008KT P6SM SCT030 BKN050 
     FM012100 10008KT P6SM VCSH BKN035 
     FM020300 14006KT P6SM BKN050 
     FM020600 18006KT P6SM BKN060